createdAt,value
2019-03-10T00:00:34.337Z,0.73
2019-03-10T00:01:38.755Z,0.69
2019-03-10T00:02:43.039Z,0.69
2019-03-10T00:03:47.519Z,0.72
2019-03-10T00:04:51.893Z,0.74
2019-03-10T00:05:56.418Z,0.75
2019-03-10T00:07:00.769Z,0.74
2019-03-10T00:08:07.668Z,0.74
2019-03-10T00:09:09.754Z,0.78
2019-03-10T00:10:14.229Z,0.75
2019-03-10T00:11:18.596Z,0.78
2019-03-10T00:12:22.919Z,0.74
2019-03-10T00:13:27.225Z,0.71
2019-03-10T00:14:31.643Z,0.73
2019-03-10T00:15:35.948Z,0.73
2019-03-10T00:16:40.273Z,0.69
2019-03-10T00:17:44.442Z,0.68
2019-03-10T00:18:48.848Z,0.68
2019-03-10T00:19:53.182Z,0.55
2019-03-10T00:20:57.706Z,0.59
2019-03-10T00:22:01.769Z,0.61
2019-03-10T00:23:06.223Z,0.63
2019-03-10T00:24:10.632Z,0.64
2019-03-10T00:25:15.026Z,0.64
2019-03-10T00:26:20.884Z,0.67
2019-03-10T00:27:23.738Z,0.68
2019-03-10T00:28:28.365Z,0.71
2019-03-10T00:29:32.586Z,0.70
2019-03-10T00:30:36.972Z,0.71
2019-03-10T00:31:41.378Z,0.73
2019-03-10T00:32:45.786Z,0.75
2019-03-10T00:33:50.403Z,0.75
2019-03-10T00:34:54.974Z,0.74
2019-03-10T00:35:59.360Z,0.73
2019-03-10T00:37:03.664Z,0.72
2019-03-10T00:38:07.957Z,0.71
2019-03-10T00:40:01.553Z,0.73
2019-03-10T00:41:15.493Z,0.66
2019-03-10T00:42:38.242Z,0.68
2019-03-10T00:43:53.289Z,0.68
2019-03-10T00:46:09.483Z,0.68
2019-03-10T00:47:44.513Z,0.73
2019-03-10T00:50:10.230Z,0.74
2019-03-10T00:52:23.369Z,0.75
2019-03-10T00:53:27.603Z,0.78
2019-03-10T00:54:31.961Z,0.78
2019-03-10T00:55:36.380Z,0.78
2019-03-10T00:56:40.637Z,0.78
2019-03-10T00:57:44.727Z,0.81
2019-03-10T00:58:48.903Z,0.81
2019-03-10T00:59:53.036Z,0.81
2019-03-10T01:00:57.162Z,0.79
2019-03-10T01:02:01.334Z,0.81
2019-03-10T01:03:05.690Z,0.82
2019-03-10T01:04:10.109Z,0.83
2019-03-10T01:05:14.688Z,0.84
2019-03-10T01:06:18.737Z,0.84
2019-03-10T01:07:22.919Z,0.84
2019-03-10T01:08:27.071Z,0.83
2019-03-10T01:09:31.309Z,0.82
2019-03-10T01:10:35.426Z,0.82
2019-03-10T01:11:39.656Z,0.83
2019-03-10T01:12:44.205Z,0.82
2019-03-10T01:13:48.612Z,0.84
2019-03-10T01:14:53.056Z,0.83
2019-03-10T01:15:57.675Z,0.83
2019-03-10T01:17:01.988Z,0.84
2019-03-10T01:18:06.478Z,0.83
2019-03-10T01:19:10.821Z,0.84
2019-03-10T01:20:15.541Z,0.83
2019-03-10T01:21:20.258Z,0.83
2019-03-10T01:22:24.676Z,0.80
2019-03-10T01:23:29.213Z,0.79
2019-03-10T01:24:33.595Z,0.77
2019-03-10T01:25:37.826Z,0.77
2019-03-10T01:26:42.346Z,0.79
2019-03-10T01:27:46.621Z,0.79
2019-03-10T01:28:50.992Z,0.80
2019-03-10T01:29:55.382Z,0.79
2019-03-10T01:31:06.294Z,0.80
2019-03-10T01:32:24.533Z,0.81
2019-03-10T01:33:45.137Z,0.81
2019-03-10T01:34:59.152Z,0.81
2019-03-10T01:36:03.600Z,0.78
2019-03-10T01:37:07.993Z,0.78
2019-03-10T01:38:12.387Z,0.77
2019-03-10T01:39:16.642Z,0.75
2019-03-10T01:40:21.023Z,0.74
2019-03-10T01:41:25.457Z,0.75
2019-03-10T01:42:29.837Z,0.75
2019-03-10T01:43:34.216Z,0.75
2019-03-10T01:44:38.321Z,0.74
2019-03-10T01:45:42.407Z,0.72
2019-03-10T01:46:46.440Z,0.74
2019-03-10T01:47:50.442Z,0.74
2019-03-10T01:48:54.486Z,0.73
2019-03-10T01:49:58.595Z,0.75
2019-03-10T01:51:02.605Z,0.75
2019-03-10T01:52:06.663Z,0.74
2019-03-10T01:53:10.738Z,0.74
2019-03-10T01:54:14.878Z,0.72
2019-03-10T01:55:18.947Z,0.71
2019-03-10T01:56:22.982Z,0.72
2019-03-10T01:57:27.030Z,0.72
2019-03-10T01:58:31.041Z,0.72
2019-03-10T01:59:35.079Z,0.72
2019-03-10T02:00:39.429Z,0.70
2019-03-10T02:01:49.933Z,0.71
2019-03-10T02:02:53.957Z,0.70
2019-03-10T02:03:58.017Z,0.70
2019-03-10T02:05:02.098Z,0.70
2019-03-10T02:06:06.234Z,0.64
2019-03-10T02:07:10.250Z,0.66
2019-03-10T02:08:14.348Z,0.68
2019-03-10T02:09:18.440Z,0.67
2019-03-10T02:10:22.490Z,0.67
2019-03-10T02:11:26.629Z,0.67
2019-03-10T02:12:30.658Z,0.67
2019-03-10T02:13:34.715Z,0.65
2019-03-10T02:14:38.769Z,0.62
2019-03-10T02:15:42.924Z,0.60
2019-03-10T02:16:47.027Z,0.59
2019-03-10T02:17:51.116Z,0.59
2019-03-10T02:18:55.192Z,0.60
2019-03-10T02:19:59.260Z,0.59
2019-03-10T02:21:03.372Z,0.58
2019-03-10T02:22:07.491Z,0.55
2019-03-10T02:23:11.550Z,0.54
2019-03-10T02:24:23.462Z,0.55
2019-03-10T02:25:19.856Z,0.55
2019-03-10T02:26:23.924Z,0.57
2019-03-10T02:27:27.998Z,0.55
2019-03-10T02:28:32.040Z,0.54
2019-03-10T02:29:36.100Z,0.55
2019-03-10T02:30:40.111Z,0.52
2019-03-10T02:31:44.151Z,0.49
2019-03-10T02:32:48.276Z,0.50
2019-03-10T02:33:52.301Z,0.47
2019-03-10T02:34:56.602Z,0.50
2019-03-10T02:36:00.598Z,0.50
2019-03-10T02:37:04.706Z,0.48
2019-03-10T02:38:08.891Z,0.48
2019-03-10T02:39:12.961Z,0.50
2019-03-10T02:40:17.109Z,0.49
2019-03-10T02:41:21.469Z,0.46
2019-03-10T02:42:25.771Z,0.48
2019-03-10T02:43:30.206Z,0.49
2019-03-10T02:44:34.492Z,0.49
2019-03-10T02:45:38.878Z,0.49
2019-03-10T02:46:43.248Z,0.49
2019-03-10T02:47:47.620Z,0.47
2019-03-10T02:48:52.171Z,0.47
2019-03-10T02:49:56.544Z,0.47
2019-03-10T02:51:00.929Z,0.46
2019-03-10T02:52:05.256Z,0.44
2019-03-10T02:53:09.552Z,0.43
2019-03-10T02:54:13.914Z,0.42
2019-03-10T02:55:18.182Z,0.42
2019-03-10T02:56:22.485Z,0.41
2019-03-10T02:57:26.914Z,0.41
2019-03-10T02:58:31.384Z,0.38
2019-03-10T02:59:35.639Z,0.34
2019-03-10T03:00:39.897Z,0.34
2019-03-10T03:01:44.241Z,0.34
2019-03-10T03:02:48.583Z,0.35
2019-03-10T03:03:52.985Z,0.31
2019-03-10T03:04:57.603Z,0.31
2019-03-10T03:06:02.032Z,0.29
2019-03-10T03:07:06.423Z,0.21
2019-03-10T03:08:10.714Z,0.22
2019-03-10T03:09:15.095Z,0.22
2019-03-10T03:10:19.221Z,0.23
2019-03-10T03:11:23.267Z,0.23
2019-03-10T03:12:27.402Z,0.20
2019-03-10T03:13:31.442Z,0.20
2019-03-10T03:14:35.500Z,0.20
2019-03-10T03:15:39.857Z,0.19
2019-03-10T03:16:44.222Z,0.19
2019-03-10T03:17:48.565Z,0.19
2019-03-10T03:18:53.510Z,0.18
2019-03-10T03:19:57.852Z,0.17
2019-03-10T03:21:02.276Z,0.17
2019-03-10T03:22:06.575Z,0.16
2019-03-10T03:23:10.964Z,0.15
2019-03-10T03:24:15.305Z,0.14
2019-03-10T03:25:19.661Z,0.07
2019-03-10T03:26:24.142Z,0.04
2019-03-10T03:27:28.444Z,0.01
2019-03-10T03:28:32.770Z,0.03
2019-03-10T03:29:37.051Z,0.00
2019-03-10T03:30:41.378Z,0.00
2019-03-10T03:31:45.699Z,-0.03
2019-03-10T03:32:50.119Z,-0.12
2019-03-10T03:33:54.617Z,-0.11
2019-03-10T03:34:59.079Z,-0.11
2019-03-10T03:36:11.637Z,-0.11
2019-03-10T03:37:18.406Z,-0.11
2019-03-10T03:38:26.605Z,-0.11
2019-03-10T03:39:35.291Z,-0.10
2019-03-10T03:40:40.419Z,-0.21
2019-03-10T03:41:44.729Z,-0.21
2019-03-10T03:42:49.062Z,-0.21
2019-03-10T03:43:53.431Z,-0.20
2019-03-10T03:44:57.786Z,-0.21
2019-03-10T03:46:02.314Z,-0.23
2019-03-10T03:47:06.659Z,-0.23
2019-03-10T03:48:11.071Z,-0.26
2019-03-10T03:49:15.496Z,-0.29
2019-03-10T03:50:19.851Z,-0.29
2019-03-10T03:51:24.136Z,-0.31
2019-03-10T03:52:28.509Z,-0.34
2019-03-10T03:53:32.893Z,-0.36
2019-03-10T03:54:37.250Z,-0.39
2019-03-10T03:55:41.672Z,-0.41
2019-03-10T03:56:46.026Z,-0.42
2019-03-10T03:57:50.349Z,-0.47
2019-03-10T03:58:54.834Z,-0.48
2019-03-10T03:59:58.930Z,-0.51
2019-03-10T04:01:12.446Z,-0.65
2019-03-10T04:02:20.873Z,-0.63
2019-03-10T04:03:25.359Z,-0.66
2019-03-10T04:04:29.821Z,-0.67
2019-03-10T04:05:34.233Z,-0.68
2019-03-10T04:06:38.593Z,-0.70
2019-03-10T04:07:42.971Z,-0.72
2019-03-10T04:08:47.449Z,-0.72
2019-03-10T04:09:51.709Z,-0.73
2019-03-10T04:10:56.049Z,-0.76
2019-03-10T04:12:00.271Z,-0.82
2019-03-10T04:13:04.341Z,-0.85
2019-03-10T04:14:08.750Z,-0.86
2019-03-10T04:15:13.094Z,-0.89
2019-03-10T04:16:17.469Z,-0.88
2019-03-10T04:17:21.944Z,-0.89
2019-03-10T04:18:26.410Z,-0.90
2019-03-10T04:19:30.683Z,-0.90
2019-03-10T04:20:34.988Z,-0.90
2019-03-10T04:21:39.326Z,-0.91
2019-03-10T04:22:43.821Z,-0.94
2019-03-10T04:23:49.899Z,-0.95
2019-03-10T04:24:54.514Z,-0.95
2019-03-10T04:26:02.243Z,-0.96
2019-03-10T04:29:25.778Z,-1.03
2019-03-10T04:30:29.823Z,-1.03
2019-03-10T04:31:34.370Z,-1.03
2019-03-10T04:32:38.574Z,-1.04
2019-03-10T04:33:42.950Z,-1.05
2019-03-10T04:34:47.499Z,-1.08
2019-03-10T04:35:51.860Z,-1.10
2019-03-10T04:36:56.216Z,-1.14
2019-03-10T04:38:00.665Z,-1.17
2019-03-10T04:39:06.056Z,-1.17
2019-03-10T04:40:10.600Z,-1.20
2019-03-10T04:41:15.123Z,-1.19
2019-03-10T04:42:19.385Z,-1.23
2019-03-10T04:43:23.688Z,-1.23
2019-03-10T04:44:28.117Z,-1.24
2019-03-10T04:45:32.559Z,-1.25
2019-03-10T04:46:36.854Z,-1.31
2019-03-10T04:47:41.114Z,-1.30
2019-03-10T04:48:45.559Z,-1.32
2019-03-10T04:49:49.927Z,-1.32
2019-03-10T04:50:54.236Z,-1.31
2019-03-10T04:51:58.485Z,-1.34
2019-03-10T04:53:02.885Z,-1.34
2019-03-10T04:54:07.077Z,-1.36
2019-03-10T04:55:20.277Z,-1.37
2019-03-10T04:56:33.964Z,-1.37
2019-03-10T04:57:38.413Z,-1.39
2019-03-10T04:58:46.725Z,-1.41
2019-03-10T04:59:51.057Z,-1.46
2019-03-10T05:00:56.596Z,-1.51
2019-03-10T05:02:01.023Z,-1.51
2019-03-10T05:03:05.503Z,-1.50
2019-03-10T05:04:09.817Z,-1.48
2019-03-10T05:05:14.144Z,-1.46
2019-03-10T05:06:18.487Z,-1.48
2019-03-10T05:07:22.953Z,-1.48
2019-03-10T05:08:27.371Z,-1.48
2019-03-10T05:09:31.753Z,-1.49
2019-03-10T05:10:36.225Z,-1.51
2019-03-10T05:11:40.230Z,-1.52
2019-03-10T05:12:44.282Z,-1.52
2019-03-10T05:13:48.332Z,-1.56
2019-03-10T05:14:52.335Z,-1.54
2019-03-10T05:15:56.423Z,-1.54
2019-03-10T05:17:00.489Z,-1.51
2019-03-10T05:18:04.642Z,-1.52
2019-03-10T05:19:09.025Z,-1.54
2019-03-10T05:20:13.390Z,-1.59
2019-03-10T05:21:17.943Z,-1.61
2019-03-10T05:22:22.252Z,-1.66
2019-03-10T05:23:33.540Z,-1.67
2019-03-10T05:24:37.920Z,-1.68
2019-03-10T05:25:42.223Z,-1.70
2019-03-10T05:26:46.633Z,-1.71
2019-03-10T05:27:51.041Z,-1.76
2019-03-10T05:28:55.501Z,-1.77
2019-03-10T05:29:59.884Z,-1.83
2019-03-10T05:31:03.935Z,-1.87
2019-03-10T05:32:08.038Z,-1.89
2019-03-10T05:33:12.068Z,-1.90
2019-03-10T05:34:16.184Z,-1.90
2019-03-10T05:35:20.216Z,-1.90
2019-03-10T05:36:24.302Z,-1.90
2019-03-10T05:37:28.305Z,-1.92
2019-03-10T05:38:32.332Z,-1.94
2019-03-10T05:39:36.432Z,-1.95
2019-03-10T05:40:40.490Z,-1.95
2019-03-10T05:41:44.550Z,-1.96
2019-03-10T05:42:49.000Z,-1.97
2019-03-10T05:43:53.295Z,-1.99
2019-03-10T05:44:57.788Z,-2.00
2019-03-10T05:46:02.135Z,-2.00
2019-03-10T05:47:06.541Z,-2.01
2019-03-10T05:48:10.840Z,-2.01
2019-03-10T05:49:15.004Z,-2.07
2019-03-10T05:50:19.364Z,-2.05
2019-03-10T05:51:23.670Z,-2.04
2019-03-10T05:52:27.970Z,-2.04
2019-03-10T05:53:32.298Z,-2.03
2019-03-10T05:54:36.644Z,-2.03
2019-03-10T05:55:41.063Z,-2.04
2019-03-10T05:56:45.356Z,-2.07
2019-03-10T05:57:49.748Z,-2.07
2019-03-10T05:58:54.155Z,-2.05
2019-03-10T05:59:58.531Z,-2.10
2019-03-10T06:01:02.830Z,-2.12
2019-03-10T06:02:07.377Z,-2.13
2019-03-10T06:03:11.393Z,-2.14
2019-03-10T06:04:15.675Z,-2.20
2019-03-10T06:05:20.112Z,-2.23
2019-03-10T06:06:24.530Z,-2.22
2019-03-10T06:07:28.905Z,-2.20
2019-03-10T06:08:33.141Z,-2.25
2019-03-10T06:09:37.702Z,-2.23
2019-03-10T06:10:42.036Z,-2.20
2019-03-10T06:11:46.501Z,-2.19
2019-03-10T06:12:50.751Z,-2.19
2019-03-10T06:13:55.212Z,-2.15
2019-03-10T06:14:59.521Z,-2.18
2019-03-10T06:16:03.927Z,-2.20
2019-03-10T06:17:08.424Z,-2.25
2019-03-10T06:18:13.991Z,-2.25
2019-03-10T06:19:17.286Z,-2.30
2019-03-10T06:20:21.738Z,-2.27
2019-03-10T06:21:26.043Z,-2.39
2019-03-10T06:22:30.552Z,-2.36
2019-03-10T06:23:34.797Z,-2.32
2019-03-10T06:24:39.162Z,-2.31
2019-03-10T06:25:43.614Z,-2.29
2019-03-10T06:26:48.020Z,-2.25
2019-03-10T06:27:52.352Z,-2.25
2019-03-10T06:28:56.616Z,-2.33
2019-03-10T06:30:00.947Z,-2.31
2019-03-10T06:31:05.326Z,-2.29
2019-03-10T06:32:09.770Z,-2.28
2019-03-10T06:33:14.191Z,-2.27
2019-03-10T06:34:18.469Z,-2.25
2019-03-10T06:35:22.863Z,-2.20
2019-03-10T06:36:27.021Z,-2.19
2019-03-10T06:37:31.407Z,-2.20
2019-03-10T06:38:35.839Z,-2.16
2019-03-10T06:39:40.196Z,-2.16
2019-03-10T06:40:44.457Z,-2.15
2019-03-10T06:41:48.735Z,-2.14
2019-03-10T06:42:53.103Z,-2.20
2019-03-10T06:43:57.474Z,-2.19
2019-03-10T06:45:01.962Z,-2.17
2019-03-10T06:46:06.309Z,-2.20
2019-03-10T06:47:10.694Z,-2.21
2019-03-10T06:48:14.989Z,-2.25
2019-03-10T06:49:19.417Z,-2.28
2019-03-10T06:50:23.776Z,-2.30
2019-03-10T06:51:27.813Z,-2.29
2019-03-10T06:52:32.225Z,-2.23
2019-03-10T06:53:36.658Z,-2.19
2019-03-10T06:54:41.245Z,-2.25
2019-03-10T06:55:45.689Z,-2.23
2019-03-10T06:56:50.232Z,-2.28
2019-03-10T06:57:54.728Z,-2.25
2019-03-10T06:58:58.976Z,-2.20
2019-03-10T07:00:03.529Z,-2.22
2019-03-10T07:01:08.006Z,-2.24
2019-03-10T07:02:12.335Z,-2.27
2019-03-10T07:03:16.663Z,-2.26
2019-03-10T07:04:21.179Z,-2.30
2019-03-10T07:05:25.526Z,-2.24
2019-03-10T07:06:29.896Z,-2.37
2019-03-10T07:07:34.389Z,-2.35
2019-03-10T07:08:38.683Z,-2.33
2019-03-10T07:09:42.990Z,-2.36
2019-03-10T07:10:47.470Z,-2.33
2019-03-10T07:11:51.839Z,-2.38
2019-03-10T07:12:56.174Z,-2.45
2019-03-10T07:14:00.536Z,-2.41
2019-03-10T07:15:05.037Z,-2.35
2019-03-10T07:16:09.489Z,-2.37
2019-03-10T07:17:13.839Z,-2.37
2019-03-10T07:18:18.277Z,-2.37
2019-03-10T07:19:23.036Z,-2.35
2019-03-10T07:20:27.423Z,-2.42
2019-03-10T07:21:31.935Z,-2.40
2019-03-10T07:22:36.356Z,-2.45
2019-03-10T07:23:40.752Z,-2.44
2019-03-10T07:24:45.155Z,-2.41
2019-03-10T07:25:53.592Z,-2.39
2019-03-10T07:26:58.015Z,-2.38
2019-03-10T07:28:15.198Z,-2.36
2019-03-10T07:29:26.092Z,-2.46
2019-03-10T07:30:37.661Z,-2.46
2019-03-10T07:32:01.009Z,-2.47
2019-03-10T07:33:15.306Z,-2.43
2019-03-10T07:34:26.609Z,-2.42
2019-03-10T07:35:37.782Z,-2.39
2019-03-10T07:37:01.997Z,-2.34
2019-03-10T07:38:13.197Z,-2.34
2019-03-10T07:39:31.350Z,-2.31
2019-03-10T07:41:43.555Z,-2.27
2019-03-10T07:43:51.681Z,-2.23
2019-03-10T07:45:34.471Z,-2.16
2019-03-10T07:46:47.885Z,-2.17
2019-03-10T07:48:00.193Z,-2.27
2019-03-10T07:49:23.718Z,-2.20
2019-03-10T07:51:39.432Z,-2.25
2019-03-10T07:52:52.667Z,-2.23
2019-03-10T07:54:05.567Z,-2.27
2019-03-10T07:56:15.901Z,-2.30
2019-03-10T07:57:40.411Z,-2.27
2019-03-10T07:58:51.798Z,-2.22
2019-03-10T08:00:01.751Z,-2.25
2019-03-10T08:01:10.902Z,-2.23
2019-03-10T08:02:22.913Z,-2.25
2019-03-10T08:04:04.431Z,-2.23
2019-03-10T08:05:19.892Z,-2.21
2019-03-10T08:06:35.669Z,-2.24
2019-03-10T08:07:44.996Z,-2.25
2019-03-10T08:09:01.285Z,-2.21
2019-03-10T08:10:12.856Z,-2.23
2019-03-10T08:11:23.982Z,-2.28
2019-03-10T08:12:33.308Z,-2.29
2019-03-10T08:13:42.721Z,-2.27
2019-03-10T08:14:51.183Z,-2.24
2019-03-10T08:16:06.647Z,-2.15
2019-03-10T08:18:19.987Z,-2.16
2019-03-10T08:19:34.496Z,-2.16
2019-03-10T08:20:46.906Z,-2.12
2019-03-10T08:21:56.243Z,-2.17
2019-03-10T08:23:20.382Z,-2.16
2019-03-10T08:24:34.568Z,-2.15
2019-03-10T08:25:48.094Z,-2.12
2019-03-10T08:27:03.121Z,-2.10
2019-03-10T08:28:12.228Z,-2.09
2019-03-10T08:29:20.417Z,-2.08
2019-03-10T08:30:29.633Z,-2.06
2019-03-10T08:31:54.712Z,-2.05
2019-03-10T08:33:03.816Z,-2.11
2019-03-10T08:34:13.342Z,-2.03
2019-03-10T08:35:22.769Z,-2.04
2019-03-10T08:36:32.078Z,-2.12
2019-03-10T08:38:45.397Z,-2.12
2019-03-10T08:40:30.024Z,-2.10
2019-03-10T08:41:43.874Z,-2.17
2019-03-10T08:42:51.967Z,-2.14
2019-03-10T08:45:00.647Z,-2.13
2019-03-10T08:46:10.054Z,-2.34
2019-03-10T08:47:26.247Z,-2.33
2019-03-10T08:48:36.466Z,-2.35
2019-03-10T08:49:45.816Z,-2.37
2019-03-10T08:51:01.033Z,-2.29
2019-03-10T08:52:09.490Z,-2.26
2019-03-10T08:53:19.130Z,-2.24
2019-03-10T08:54:39.503Z,-2.27
2019-03-10T08:55:51.625Z,-2.27
2019-03-10T08:57:03.186Z,-2.36
2019-03-10T08:58:12.582Z,-2.36
2019-03-10T08:59:21.930Z,-2.43
2019-03-10T09:00:40.164Z,-2.36
2019-03-10T09:01:55.937Z,-2.36
2019-03-10T09:03:20.318Z,-2.33
2019-03-10T09:04:40.790Z,-2.33
2019-03-10T09:05:50.442Z,-2.29
2019-03-10T09:09:04.799Z,-2.19
2019-03-10T09:10:26.937Z,-2.15
2019-03-10T09:11:38.141Z,-2.14
2019-03-10T09:13:05.854Z,-2.08
2019-03-10T09:14:21.118Z,-1.96
2019-03-10T09:15:30.784Z,-2.11
2019-03-10T09:16:40.978Z,-2.10
2019-03-10T09:19:53.108Z,-2.16
2019-03-10T09:21:16.566Z,-2.08
2019-03-10T09:22:27.916Z,-2.02
2019-03-10T09:23:36.348Z,-1.94
2019-03-10T09:24:55.802Z,-2.07
2019-03-10T09:28:11.391Z,-2.00
2019-03-10T09:29:21.486Z,-1.98
2019-03-10T09:30:32.926Z,-2.01
2019-03-10T09:31:42.340Z,-2.07
2019-03-10T09:34:58.338Z,-2.02
2019-03-10T09:36:07.869Z,-1.92
2019-03-10T09:37:19.450Z,-1.84
2019-03-10T09:38:33.944Z,-1.81
2019-03-10T09:39:43.216Z,-1.85
2019-03-10T09:40:58.514Z,-1.81
2019-03-10T09:43:08.714Z,-1.81
2019-03-10T09:44:19.018Z,-1.89
2019-03-10T09:45:28.513Z,-1.81
2019-03-10T09:46:41.756Z,-1.79
2019-03-10T09:47:52.982Z,-1.84
2019-03-10T09:49:04.381Z,-1.80
2019-03-10T09:50:28.090Z,-1.78
2019-03-10T09:51:38.697Z,-1.72
2019-03-10T09:52:54.277Z,-1.65
2019-03-10T09:54:08.697Z,-1.73
2019-03-10T09:56:16.007Z,-1.63
2019-03-10T09:57:30.170Z,-1.75
2019-03-10T09:58:46.551Z,-1.70
2019-03-10T10:00:02.717Z,-1.63
2019-03-10T10:01:15.049Z,-1.63
2019-03-10T10:02:28.750Z,-1.62
2019-03-10T10:03:38.190Z,-1.68
2019-03-10T10:04:47.414Z,-1.64
2019-03-10T10:07:03.500Z,-1.62
2019-03-10T10:08:12.922Z,-1.62
2019-03-10T10:09:24.142Z,-1.51
2019-03-10T10:10:33.674Z,-1.42
2019-03-10T10:11:51.152Z,-1.39
2019-03-10T10:15:07.547Z,-1.43
2019-03-10T10:16:20.759Z,-1.39
2019-03-10T10:17:29.148Z,-1.37
2019-03-10T10:18:37.562Z,-1.39
2019-03-10T10:19:48.834Z,-1.35
2019-03-10T10:21:18.343Z,-1.30
2019-03-10T10:22:34.698Z,-1.27
2019-03-10T10:23:44.873Z,-1.30
2019-03-10T10:26:59.054Z,-1.34
2019-03-10T10:28:10.505Z,-1.31
2019-03-10T10:29:23.723Z,-1.28
2019-03-10T10:31:42.483Z,-1.27
2019-03-10T10:32:53.641Z,-1.28
2019-03-10T10:34:32.050Z,-1.24
2019-03-10T10:36:42.411Z,-1.24
2019-03-10T10:37:50.827Z,-1.18
2019-03-10T10:39:00.463Z,-1.22
2019-03-10T10:40:11.514Z,-1.23
2019-03-10T10:41:20.925Z,-1.18
2019-03-10T10:42:38.678Z,-1.15
2019-03-10T10:43:50.143Z,-1.14
2019-03-10T10:45:57.236Z,-1.10
2019-03-10T10:47:12.486Z,-1.03
2019-03-10T10:48:26.344Z,-1.00
2019-03-10T10:49:37.678Z,-0.97
2019-03-10T10:51:44.753Z,-1.04
2019-03-10T10:56:52.187Z,-0.84
2019-03-10T10:58:20.002Z,-0.81
2019-03-10T10:59:34.426Z,-0.80
2019-03-10T11:00:43.171Z,-0.73
2019-03-10T11:01:55.291Z,-0.65
2019-03-10T11:03:05.150Z,-0.47
2019-03-10T11:05:12.427Z,-0.43
2019-03-10T11:06:29.115Z,-0.24
2019-03-10T11:07:53.520Z,-0.04
2019-03-10T11:09:06.917Z,0.15
2019-03-10T11:10:16.539Z,0.25
2019-03-10T11:11:30.898Z,0.51
2019-03-10T11:12:44.247Z,0.63
2019-03-10T11:13:57.842Z,0.69
2019-03-10T11:15:18.448Z,0.88
2019-03-10T11:16:34.925Z,0.92
2019-03-10T11:17:44.038Z,1.06
2019-03-10T11:19:00.760Z,1.00
2019-03-10T11:22:15.381Z,1.19
2019-03-10T11:23:24.746Z,1.23
2019-03-10T11:24:48.886Z,1.29
2019-03-10T11:26:00.500Z,1.47
2019-03-10T11:27:09.658Z,1.46
2019-03-10T11:28:49.461Z,1.64
2019-03-10T11:30:05.828Z,1.86
2019-03-10T11:31:17.226Z,1.97
2019-03-10T11:32:27.390Z,2.16
2019-03-10T11:34:36.258Z,2.32
2019-03-10T11:35:49.323Z,2.54
2019-03-10T11:37:12.750Z,2.67
2019-03-10T11:38:37.188Z,2.74
2019-03-10T11:40:43.507Z,2.89
2019-03-10T11:41:54.254Z,3.02
2019-03-10T11:43:18.917Z,2.97
2019-03-10T11:44:34.109Z,2.86
2019-03-10T11:45:43.325Z,2.95
2019-03-10T11:47:51.330Z,3.03
2019-03-10T11:49:02.298Z,3.12
2019-03-10T11:52:16.514Z,2.92
2019-03-10T11:53:26.014Z,3.17
2019-03-10T11:54:35.568Z,3.00
2019-03-10T11:56:16.092Z,2.95
2019-03-10T11:57:27.456Z,3.15
2019-03-10T11:58:35.948Z,3.22
2019-03-10T11:59:45.482Z,3.37
2019-03-10T12:00:56.765Z,3.48
2019-03-10T12:02:16.174Z,3.44
2019-03-10T12:03:18.817Z,3.45
2019-03-10T12:04:40.401Z,3.39
2019-03-10T12:06:55.037Z,3.20
2019-03-10T12:08:05.170Z,2.90
2019-03-10T12:09:25.599Z,2.95
2019-03-10T12:10:29.992Z,3.09
2019-03-10T12:11:34.481Z,2.88
2019-03-10T12:12:38.830Z,3.17
2019-03-10T12:13:43.201Z,3.28
2019-03-10T12:14:47.550Z,3.35
2019-03-10T12:15:51.622Z,3.48
2019-03-10T12:16:55.642Z,3.67
2019-03-10T12:17:59.837Z,3.65
2019-03-10T12:19:04.057Z,3.50
2019-03-10T12:20:09.362Z,3.46
2019-03-10T12:21:13.508Z,3.57
2019-03-10T12:22:17.642Z,3.32
2019-03-10T12:23:21.898Z,3.65
2019-03-10T12:24:26.057Z,3.93
2019-03-10T12:25:30.213Z,3.75
2019-03-10T12:26:34.397Z,3.70
2019-03-10T12:27:38.556Z,3.80
2019-03-10T12:28:42.830Z,3.93
2019-03-10T12:29:46.902Z,4.01
2019-03-10T12:30:51.009Z,3.95
2019-03-10T12:31:55.093Z,3.57
2019-03-10T12:32:59.171Z,3.54
2019-03-10T12:34:05.283Z,3.70
2019-03-10T12:35:07.679Z,3.86
2019-03-10T12:36:11.711Z,4.07
2019-03-10T12:37:15.727Z,4.18
2019-03-10T12:38:19.812Z,3.92
2019-03-10T12:39:24.053Z,3.72
2019-03-10T12:40:28.182Z,4.01
2019-03-10T12:41:32.258Z,3.83
2019-03-10T12:42:36.357Z,3.66
2019-03-10T12:43:40.406Z,3.63
2019-03-10T12:44:44.544Z,3.60
2019-03-10T12:45:48.769Z,3.54
2019-03-10T12:46:52.792Z,3.26
2019-03-10T12:47:56.892Z,3.26
2019-03-10T12:49:00.968Z,3.17
2019-03-10T12:50:05.631Z,3.02
2019-03-10T12:51:09.708Z,3.18
2019-03-10T12:52:13.800Z,3.28
2019-03-10T12:53:17.992Z,3.28
2019-03-10T12:54:22.065Z,3.33
2019-03-10T12:55:26.164Z,3.34
2019-03-10T12:56:30.287Z,3.48
2019-03-10T12:57:34.421Z,3.41
2019-03-10T12:58:38.464Z,3.56
2019-03-10T12:59:42.586Z,3.53
2019-03-10T13:00:46.791Z,3.59
2019-03-10T13:01:50.886Z,3.56
2019-03-10T13:02:55.008Z,3.47
2019-03-10T13:03:59.434Z,3.46
2019-03-10T13:05:03.516Z,3.54
2019-03-10T13:06:07.766Z,3.63
2019-03-10T13:07:11.856Z,3.53
2019-03-10T13:08:16.150Z,3.62
2019-03-10T13:09:20.235Z,3.68
2019-03-10T13:10:24.465Z,3.60
2019-03-10T13:11:28.738Z,3.70
2019-03-10T13:12:33.186Z,3.76
2019-03-10T13:13:37.524Z,3.59
2019-03-10T13:14:41.906Z,3.77
2019-03-10T13:15:46.019Z,3.83
2019-03-10T13:16:50.222Z,3.73
2019-03-10T13:17:54.466Z,3.64
2019-03-10T13:18:58.713Z,3.86
2019-03-10T13:20:03.319Z,3.95
2019-03-10T13:21:07.738Z,4.04
2019-03-10T13:22:12.373Z,4.27
2019-03-10T13:23:16.867Z,4.29
2019-03-10T13:24:21.312Z,4.39
2019-03-10T13:25:25.805Z,4.38
2019-03-10T13:26:30.217Z,4.47
2019-03-10T13:27:34.803Z,4.37
2019-03-10T13:28:39.234Z,4.31
2019-03-10T13:29:43.395Z,4.36
2019-03-10T13:30:47.632Z,4.39
2019-03-10T13:31:51.969Z,4.62
2019-03-10T13:32:56.404Z,4.61
2019-03-10T13:34:00.933Z,4.45
2019-03-10T13:35:05.635Z,4.42
2019-03-10T13:36:10.232Z,4.34
2019-03-10T13:37:14.630Z,4.53
2019-03-10T13:38:19.023Z,4.89
2019-03-10T13:39:23.376Z,4.85
2019-03-10T13:40:27.831Z,4.84
2019-03-10T13:41:32.209Z,4.81
2019-03-10T13:42:36.521Z,4.72
2019-03-10T13:43:41.043Z,4.52
2019-03-10T13:44:45.330Z,4.90
2019-03-10T13:45:49.677Z,4.86
2019-03-10T13:46:53.955Z,5.01
2019-03-10T13:47:58.333Z,5.18
2019-03-10T13:49:02.673Z,5.52
2019-03-10T13:50:08.086Z,5.59
2019-03-10T13:51:12.494Z,5.60
2019-03-10T13:52:16.881Z,5.69
2019-03-10T13:53:21.187Z,5.49
2019-03-10T13:54:25.557Z,5.31
2019-03-10T13:55:29.706Z,5.14
2019-03-10T13:56:34.013Z,4.93
2019-03-10T13:57:38.313Z,4.69
2019-03-10T13:58:42.688Z,4.37
2019-03-10T13:59:47.074Z,4.04
2019-03-10T14:00:51.451Z,4.06
2019-03-10T14:01:55.761Z,4.11
2019-03-10T14:03:00.188Z,4.08
2019-03-10T14:04:04.619Z,4.08
2019-03-10T14:05:09.532Z,4.18
2019-03-10T14:06:13.810Z,4.23
2019-03-10T14:07:18.251Z,4.36
2019-03-10T14:08:22.660Z,4.21
2019-03-10T14:09:27.070Z,4.26
2019-03-10T14:10:31.625Z,4.39
2019-03-10T14:11:36.227Z,4.18
2019-03-10T14:12:40.606Z,4.16
2019-03-10T14:13:45.001Z,4.13
2019-03-10T14:14:49.304Z,4.28
2019-03-10T14:15:53.735Z,4.21
2019-03-10T14:16:58.241Z,4.12
2019-03-10T14:18:02.570Z,4.15
2019-03-10T14:19:07.081Z,4.16
2019-03-10T14:20:11.501Z,4.15
2019-03-10T14:21:15.938Z,4.34
2019-03-10T14:22:20.382Z,4.27
2019-03-10T14:23:24.617Z,4.19
2019-03-10T14:24:29.002Z,4.35
2019-03-10T14:25:33.428Z,4.45
2019-03-10T14:26:38.002Z,4.44
2019-03-10T14:27:42.281Z,4.45
2019-03-10T14:28:46.648Z,4.58
2019-03-10T14:29:50.860Z,4.45
2019-03-10T14:30:55.037Z,4.46
2019-03-10T14:31:59.486Z,4.23
2019-03-10T14:33:04.014Z,4.21
2019-03-10T14:34:08.641Z,4.12
2019-03-10T14:35:13.051Z,4.06
2019-03-10T14:36:17.322Z,3.89
2019-03-10T14:37:21.771Z,3.90
2019-03-10T14:38:26.209Z,3.87
2019-03-10T14:39:30.702Z,3.74
2019-03-10T14:40:34.996Z,3.52
2019-03-10T14:41:39.339Z,3.42
2019-03-10T14:42:44.026Z,3.37
2019-03-10T14:43:48.336Z,3.27
2019-03-10T14:44:52.701Z,3.17
2019-03-10T14:45:56.806Z,3.21
2019-03-10T14:47:01.109Z,3.23
2019-03-10T14:48:05.642Z,3.21
2019-03-10T14:49:10.038Z,3.23
2019-03-10T14:50:14.547Z,3.18
2019-03-10T14:51:18.718Z,3.28
2019-03-10T14:52:29.596Z,3.33
2019-03-10T14:53:33.982Z,3.27
2019-03-10T14:54:38.338Z,3.30
2019-03-10T14:55:42.729Z,3.29
2019-03-10T14:56:47.164Z,3.27
2019-03-10T14:57:51.512Z,3.23
2019-03-10T14:58:55.963Z,3.25
2019-03-10T15:00:00.496Z,3.07
2019-03-10T15:01:04.948Z,3.08
2019-03-10T15:02:09.424Z,3.16
2019-03-10T15:03:13.910Z,2.98
2019-03-10T15:04:18.073Z,2.96
2019-03-10T15:05:22.275Z,3.05
2019-03-10T15:06:26.373Z,2.78
2019-03-10T15:07:30.502Z,2.66
2019-03-10T15:08:34.714Z,2.51
2019-03-10T15:09:39.057Z,2.45
2019-03-10T15:10:43.177Z,2.32
2019-03-10T15:11:47.267Z,2.21
2019-03-10T15:12:51.863Z,2.28
2019-03-10T15:13:56.199Z,2.21
2019-03-10T15:15:00.710Z,2.23
2019-03-10T15:16:05.138Z,2.25
2019-03-10T15:17:16.109Z,2.21
2019-03-10T15:18:20.486Z,2.20
2019-03-10T15:19:24.717Z,2.26
2019-03-10T15:20:28.792Z,2.32
2019-03-10T15:21:32.848Z,2.06
2019-03-10T15:22:36.975Z,2.20
2019-03-10T15:23:41.077Z,2.16
2019-03-10T15:24:45.173Z,2.07